createdAt,value
2022-11-23T00:01:04.882Z,17.60
2022-11-23T00:04:02.352Z,18.00
2022-11-23T00:06:59.806Z,16.40
2022-11-23T00:09:57.257Z,15.20
2022-11-23T00:12:54.717Z,15.40
2022-11-23T00:15:52.162Z,15.80
2022-11-23T00:18:51.485Z,14.90
2022-11-23T00:21:49.037Z,14.10
2022-11-23T00:24:46.538Z,13.30
2022-11-23T00:27:44.029Z,12.50
2022-11-23T00:30:41.470Z,14.40
2022-11-23T00:33:38.933Z,13.60
2022-11-23T00:36:36.368Z,15.10
2022-11-23T00:39:33.953Z,13.20
2022-11-23T00:42:37.672Z,15.20
2022-11-23T00:45:35.694Z,13.90
2022-11-23T00:48:33.166Z,15.10
2022-11-23T00:51:30.640Z,15.60
2022-11-23T00:54:28.141Z,16.90
2022-11-23T00:57:25.581Z,16.00
2022-11-23T01:00:23.059Z,16.60
2022-11-23T01:03:20.531Z,16.00
2022-11-23T01:06:17.987Z,15.70
2022-11-23T01:09:16.173Z,16.70
2022-11-23T01:12:13.616Z,18.10
2022-11-23T01:15:11.079Z,19.50
2022-11-23T01:18:08.535Z,17.10
2022-11-23T01:21:05.980Z,15.20
2022-11-23T01:24:03.432Z,17.60
2022-11-23T01:27:00.902Z,15.70
2022-11-23T01:29:58.411Z,14.40
2022-11-23T01:32:55.902Z,13.50
2022-11-23T01:35:53.361Z,13.70
2022-11-23T01:38:50.825Z,14.00
2022-11-23T01:41:48.272Z,14.80
2022-11-23T01:44:45.720Z,13.80
2022-11-23T01:47:43.196Z,12.70
2022-11-23T01:50:40.650Z,12.70
2022-11-23T01:53:38.145Z,12.30
2022-11-23T01:56:35.594Z,10.60
2022-11-23T01:59:33.376Z,12.10
2022-11-23T02:02:31.253Z,11.70
2022-11-23T02:05:28.704Z,12.60
2022-11-23T02:08:26.160Z,10.60
2022-11-23T02:11:23.628Z,7.70
2022-11-23T02:14:23.534Z,7.20
2022-11-23T02:17:22.146Z,7.00
2022-11-23T02:20:19.630Z,6.60
2022-11-23T02:23:17.103Z,10.10
2022-11-23T02:26:14.541Z,8.50
2022-11-23T02:29:12.041Z,10.60
2022-11-23T02:32:09.625Z,9.40
2022-11-23T02:35:07.065Z,10.00
2022-11-23T02:38:04.514Z,10.50
2022-11-23T02:41:01.935Z,9.80
2022-11-23T02:43:59.362Z,9.90
2022-11-23T02:46:56.862Z,12.50
2022-11-23T02:49:54.330Z,11.20
2022-11-23T02:52:51.753Z,10.50
2022-11-23T02:55:49.194Z,10.70
2022-11-23T02:58:46.644Z,10.40
2022-11-23T03:01:45.166Z,9.90
2022-11-23T03:04:42.628Z,9.70
2022-11-23T03:07:40.162Z,12.50
2022-11-23T03:10:37.638Z,10.20
2022-11-23T03:13:35.098Z,8.20
2022-11-23T03:16:33.767Z,12.10
2022-11-23T03:19:31.578Z,10.60
2022-11-23T03:22:29.379Z,9.20
2022-11-23T03:25:27.038Z,9.50
2022-11-23T03:28:24.837Z,9.50
2022-11-23T03:31:22.314Z,9.40
2022-11-23T03:34:19.764Z,9.40
2022-11-23T03:37:17.201Z,6.80
2022-11-23T03:40:14.642Z,6.90
2022-11-23T03:43:12.102Z,5.50
2022-11-23T03:46:09.576Z,7.10
2022-11-23T03:49:07.055Z,5.60
2022-11-23T03:52:04.515Z,7.40
2022-11-23T03:55:02.000Z,4.50
2022-11-23T03:58:00.084Z,7.00
2022-11-23T04:00:57.623Z,6.90
2022-11-23T04:03:55.095Z,5.70
2022-11-23T04:06:52.547Z,6.90
2022-11-23T04:09:50.012Z,6.50
2022-11-23T04:12:47.480Z,5.50
2022-11-23T04:15:44.941Z,5.40
2022-11-23T04:18:42.369Z,6.00
2022-11-23T04:21:40.135Z,7.70
2022-11-23T04:24:37.594Z,6.50
2022-11-23T04:27:35.045Z,5.90
2022-11-23T04:30:32.498Z,5.60
2022-11-23T04:33:31.745Z,5.40
2022-11-23T04:36:29.233Z,5.40
2022-11-23T04:39:26.674Z,6.80
2022-11-23T04:42:24.139Z,4.80
2022-11-23T04:45:21.595Z,5.60
2022-11-23T04:48:19.039Z,5.00
2022-11-23T04:51:17.025Z,4.40
2022-11-23T04:54:14.455Z,4.60
2022-11-23T04:57:11.918Z,4.50
2022-11-23T05:00:09.387Z,4.40
2022-11-23T05:03:06.821Z,4.90
2022-11-23T05:06:04.287Z,4.10
2022-11-23T05:09:01.756Z,3.90
2022-11-23T05:11:59.215Z,4.70
2022-11-23T05:14:56.651Z,4.70
2022-11-23T05:17:58.862Z,3.10
2022-11-23T05:20:56.671Z,3.50
2022-11-23T05:23:54.100Z,4.00
2022-11-23T05:26:56.061Z,3.60
2022-11-23T05:29:53.904Z,3.10
2022-11-23T05:32:51.378Z,3.30
2022-11-23T05:35:48.874Z,3.50
2022-11-23T05:38:46.341Z,3.60
2022-11-23T05:41:43.800Z,3.20
2022-11-23T05:44:41.254Z,3.40
2022-11-23T05:47:38.711Z,4.40
2022-11-23T05:50:36.168Z,6.40
2022-11-23T05:53:33.631Z,9.00
2022-11-23T05:56:33.741Z,5.50
2022-11-23T05:59:35.191Z,2.90
2022-11-23T06:02:36.764Z,2.60
2022-11-23T06:05:37.223Z,2.30
2022-11-23T06:08:34.695Z,2.20
2022-11-23T06:11:32.647Z,2.60
2022-11-23T06:14:30.098Z,2.90
2022-11-23T06:17:27.562Z,3.90
2022-11-23T06:20:25.001Z,3.10
2022-11-23T06:23:22.484Z,2.70
2022-11-23T06:26:19.924Z,3.80
2022-11-23T06:29:17.383Z,3.50
2022-11-23T06:32:15.278Z,3.20
2022-11-23T06:35:12.742Z,3.30
2022-11-23T06:38:10.195Z,2.90
2022-11-23T06:41:07.677Z,3.40
2022-11-23T06:44:05.169Z,4.30
2022-11-23T06:47:02.685Z,2.90
2022-11-23T06:50:00.182Z,2.50
2022-11-23T06:52:57.668Z,3.50
2022-11-23T06:55:55.108Z,3.10
2022-11-23T06:58:52.591Z,3.40
2022-11-23T07:01:50.901Z,3.40
2022-11-23T07:04:48.393Z,2.80
2022-11-23T07:07:45.900Z,3.00
2022-11-23T07:10:43.417Z,2.70
2022-11-23T07:13:41.100Z,2.70
2022-11-23T07:16:38.544Z,4.60
2022-11-23T07:19:35.998Z,2.80
2022-11-23T07:22:33.477Z,2.50
2022-11-23T07:25:30.948Z,2.50
2022-11-23T07:28:28.419Z,2.60
2022-11-23T07:31:25.883Z,4.00
2022-11-23T07:34:23.373Z,2.80
2022-11-23T07:37:20.818Z,2.60
2022-11-23T07:40:18.302Z,2.50
2022-11-23T07:43:15.765Z,2.90
2022-11-23T07:46:13.239Z,3.10
2022-11-23T07:49:10.702Z,3.80
2022-11-23T07:52:08.162Z,3.00
2022-11-23T07:55:05.631Z,3.50
2022-11-23T07:58:03.088Z,3.10
2022-11-23T08:01:00.537Z,2.20
2022-11-23T08:03:57.972Z,2.80
2022-11-23T08:06:55.587Z,2.80
2022-11-23T08:09:53.034Z,2.60
2022-11-23T08:12:51.151Z,2.30
2022-11-23T08:15:53.696Z,3.10
2022-11-23T08:18:52.213Z,2.70
2022-11-23T08:21:49.659Z,2.20
2022-11-23T08:24:48.078Z,2.50
2022-11-23T08:27:45.531Z,2.70
2022-11-23T08:30:43.015Z,2.20
2022-11-23T08:33:40.463Z,1.80
2022-11-23T08:36:37.913Z,2.10
2022-11-23T08:39:35.358Z,2.20
2022-11-23T08:42:32.857Z,1.90
2022-11-23T08:45:30.330Z,2.20
2022-11-23T08:48:27.800Z,2.00
2022-11-23T08:51:25.259Z,2.20
2022-11-23T08:54:24.300Z,2.20
2022-11-23T08:57:21.774Z,2.00
2022-11-23T09:00:20.751Z,4.40
2022-11-23T09:03:18.185Z,2.70
2022-11-23T09:06:15.671Z,3.60
2022-11-23T09:09:13.146Z,2.50
2022-11-23T09:12:11.742Z,3.40
2022-11-23T09:15:09.781Z,6.10
2022-11-23T09:18:07.225Z,2.50
2022-11-23T09:21:04.802Z,2.50
2022-11-23T09:24:02.286Z,2.20
2022-11-23T09:26:59.753Z,2.10
2022-11-23T09:29:57.240Z,3.30
2022-11-23T09:32:54.699Z,1.90
2022-11-23T09:35:52.157Z,3.40
2022-11-23T09:38:56.653Z,2.10
2022-11-23T09:41:54.898Z,2.20
2022-11-23T09:44:52.579Z,2.20
2022-11-23T09:47:50.042Z,4.80
2022-11-23T09:50:47.768Z,2.40
2022-11-23T09:53:45.214Z,3.00
2022-11-23T09:56:42.688Z,4.30
2022-11-23T09:59:40.172Z,4.80
2022-11-23T10:02:37.653Z,2.60
2022-11-23T10:05:35.120Z,3.20
2022-11-23T10:08:32.743Z,4.40
2022-11-23T10:11:30.198Z,2.90
2022-11-23T10:14:27.647Z,3.40
2022-11-23T10:17:25.101Z,3.20
2022-11-23T10:20:22.554Z,5.30
2022-11-23T10:23:20.016Z,3.50
2022-11-23T10:26:17.546Z,5.40
2022-11-23T10:29:14.999Z,4.80
2022-11-23T10:32:18.400Z,4.00
2022-11-23T10:35:15.877Z,5.10
2022-11-23T10:38:18.424Z,4.70
2022-11-23T10:41:17.088Z,4.50
2022-11-23T10:44:14.553Z,5.10
2022-11-23T10:47:11.991Z,4.90
2022-11-23T10:50:09.461Z,4.30
2022-11-23T10:53:08.591Z,4.00
2022-11-23T10:56:08.781Z,4.50
2022-11-23T10:59:06.464Z,4.10
2022-11-23T11:02:03.946Z,4.40
2022-11-23T11:05:01.446Z,5.00
2022-11-23T11:08:00.055Z,3.70
2022-11-23T11:10:57.532Z,3.20
2022-11-23T11:13:55.031Z,4.20
2022-11-23T11:16:52.477Z,6.70
2022-11-23T11:19:49.957Z,3.80
2022-11-23T11:22:47.981Z,4.00
2022-11-23T11:25:45.637Z,3.60
2022-11-23T11:28:43.140Z,3.30
2022-11-23T11:31:40.571Z,3.90
2022-11-23T11:34:38.232Z,3.30
2022-11-23T11:37:35.697Z,3.10
2022-11-23T11:40:33.155Z,3.30
2022-11-23T11:43:37.864Z,3.40
2022-11-23T11:46:36.867Z,3.20
2022-11-23T11:49:34.342Z,3.00
2022-11-23T11:52:33.264Z,2.80
2022-11-23T11:55:30.744Z,2.40
2022-11-23T11:58:28.200Z,2.50
2022-11-23T12:01:25.673Z,2.90
2022-11-23T12:04:23.135Z,3.20
2022-11-23T12:07:20.640Z,2.70
2022-11-23T12:10:18.128Z,3.30
2022-11-23T12:13:15.629Z,3.60
2022-11-23T12:16:13.100Z,2.80
2022-11-23T12:19:10.556Z,3.20
2022-11-23T12:22:08.051Z,2.90
2022-11-23T12:25:05.556Z,2.90
2022-11-23T12:28:03.019Z,2.50
2022-11-23T12:31:01.638Z,2.10
2022-11-23T12:33:59.116Z,2.50
2022-11-23T12:36:56.606Z,4.10
2022-11-23T12:39:54.728Z,2.50
2022-11-23T12:42:53.773Z,3.00
2022-11-23T12:45:51.285Z,2.40
2022-11-23T12:48:48.745Z,1.50
2022-11-23T12:51:46.198Z,2.70
2022-11-23T12:54:43.665Z,2.00
2022-11-23T12:57:41.158Z,2.50
2022-11-23T13:00:38.685Z,2.40
2022-11-23T13:03:36.173Z,2.30
2022-11-23T13:06:33.630Z,2.80
2022-11-23T13:09:31.068Z,2.60
2022-11-23T13:12:28.533Z,2.50
2022-11-23T13:15:26.017Z,2.40
2022-11-23T13:18:23.498Z,2.00
2022-11-23T13:21:21.164Z,2.60
2022-11-23T13:24:18.623Z,3.10
2022-11-23T13:27:16.155Z,2.70
2022-11-23T13:30:13.609Z,3.40
2022-11-23T13:33:11.052Z,1.90
2022-11-23T13:36:12.700Z,2.10
2022-11-23T13:39:14.252Z,2.30
2022-11-23T13:42:11.728Z,2.60
2022-11-23T13:45:09.198Z,2.50
2022-11-23T13:48:06.659Z,2.30
2022-11-23T13:51:04.133Z,2.30
2022-11-23T13:54:02.727Z,2.70
2022-11-23T13:57:00.459Z,2.30
2022-11-23T13:59:58.513Z,2.60
2022-11-23T14:02:55.971Z,3.80
2022-11-23T14:05:53.448Z,3.50
2022-11-23T14:08:50.916Z,3.30
2022-11-23T14:11:48.385Z,3.70
2022-11-23T14:14:45.848Z,2.20
2022-11-23T14:17:43.504Z,2.80
2022-11-23T14:20:41.283Z,3.00
2022-11-23T14:23:38.738Z,2.70
2022-11-23T14:26:36.514Z,2.70
2022-11-23T14:29:33.956Z,2.90
2022-11-23T14:32:31.412Z,2.80
2022-11-23T14:35:28.993Z,4.40
2022-11-23T14:38:31.838Z,2.90
2022-11-23T14:41:30.903Z,3.20
2022-11-23T14:44:29.571Z,3.30
2022-11-23T14:47:28.945Z,3.20
2022-11-23T14:50:26.977Z,2.90
2022-11-23T14:53:24.599Z,4.00
2022-11-23T14:56:22.048Z,3.20
2022-11-23T14:59:19.503Z,3.40
2022-11-23T15:02:19.010Z,3.10
2022-11-23T15:05:16.494Z,4.60
2022-11-23T15:08:13.977Z,3.30
2022-11-23T15:11:12.613Z,2.80
2022-11-23T15:14:10.107Z,3.50
2022-11-23T15:17:07.546Z,3.30
2022-11-23T15:20:05.666Z,2.80
2022-11-23T15:23:03.143Z,3.70
2022-11-23T15:26:00.612Z,4.50
2022-11-23T15:28:58.075Z,2.30
2022-11-23T15:32:22.430Z,2.60
2022-11-23T15:35:13.056Z,3.30
2022-11-23T15:38:10.511Z,5.00
2022-11-23T15:41:07.971Z,3.70
2022-11-23T15:44:05.433Z,3.50
2022-11-23T15:47:02.942Z,3.50
2022-11-23T15:50:00.487Z,3.40
2022-11-23T15:52:58.109Z,3.40
2022-11-23T15:55:57.619Z,3.60
2022-11-23T15:58:55.057Z,5.30
2022-11-23T16:01:52.601Z,3.90
2022-11-23T16:04:50.516Z,4.20
2022-11-23T16:07:48.020Z,5.30
2022-11-23T16:10:45.544Z,3.80
2022-11-23T16:13:43.004Z,7.30
2022-11-23T16:16:45.563Z,4.50
2022-11-23T16:19:43.846Z,4.60
2022-11-23T16:22:41.555Z,4.40
2022-11-23T16:25:39.049Z,5.80
2022-11-23T16:28:36.937Z,5.30
2022-11-23T16:31:34.830Z,5.70
2022-11-23T16:34:33.090Z,5.20
2022-11-23T16:37:31.259Z,5.70
2022-11-23T16:40:28.797Z,5.60
2022-11-23T16:43:26.274Z,7.20
2022-11-23T16:46:24.422Z,7.00
2022-11-23T16:49:21.984Z,6.40
2022-11-23T16:52:20.236Z,6.90
2022-11-23T16:55:18.756Z,6.00
2022-11-23T16:58:16.558Z,6.80
2022-11-23T17:01:16.177Z,6.20
2022-11-23T17:04:14.184Z,5.40
2022-11-23T17:07:11.993Z,6.40
2022-11-23T17:10:09.677Z,7.10
2022-11-23T17:13:08.917Z,6.50
2022-11-23T17:16:08.070Z,6.90
2022-11-23T17:19:07.747Z,8.70
2022-11-23T17:22:05.826Z,7.10
2022-11-23T17:25:03.791Z,8.90
2022-11-23T17:28:02.057Z,7.90
2022-11-23T17:31:03.692Z,7.20
2022-11-23T17:34:01.988Z,8.50
2022-11-23T17:37:00.100Z,9.70
2022-11-23T17:39:59.080Z,5.80
2022-11-23T17:42:57.560Z,8.50
2022-11-23T17:45:55.565Z,8.60
2022-11-23T17:48:54.707Z,7.50
2022-11-23T17:51:53.290Z,6.30
2022-11-23T17:54:51.909Z,27.60
2022-11-23T17:57:50.492Z,19.60
2022-11-23T18:00:49.075Z,10.30
2022-11-23T18:03:47.426Z,10.90
2022-11-23T18:06:45.596Z,11.20
2022-11-23T18:09:44.324Z,9.70
2022-11-23T18:12:42.960Z,9.10
2022-11-23T18:15:41.821Z,9.50
2022-11-23T18:18:48.988Z,8.50
2022-11-23T18:21:47.397Z,7.50
2022-11-23T18:24:45.954Z,8.00
2022-11-23T18:27:44.398Z,8.20
2022-11-23T18:30:44.569Z,7.60
2022-11-23T18:33:47.617Z,7.80
2022-11-23T18:36:45.152Z,8.50
2022-11-23T18:39:43.476Z,8.00
2022-11-23T18:42:42.043Z,8.50
2022-11-23T18:45:43.836Z,8.20
2022-11-23T18:48:42.417Z,7.20
2022-11-23T18:51:41.629Z,25.10
2022-11-23T18:54:40.511Z,15.20
2022-11-23T18:57:41.659Z,41.60
2022-11-23T19:00:40.449Z,24.90
2022-11-23T19:03:40.614Z,18.70
2022-11-23T19:06:39.736Z,11.70
2022-11-23T19:09:38.237Z,9.80
2022-11-23T19:12:37.816Z,10.30
2022-11-23T19:15:36.425Z,7.30
2022-11-23T19:18:35.117Z,9.10
2022-11-23T19:21:33.212Z,9.90
2022-11-23T19:24:31.796Z,8.20
2022-11-23T19:27:31.045Z,9.40
2022-11-23T19:30:29.937Z,11.70
2022-11-23T19:33:30.220Z,8.00
2022-11-23T19:36:29.084Z,8.40
2022-11-23T19:39:28.005Z,11.20
2022-11-23T19:42:26.895Z,9.50
2022-11-23T19:45:25.555Z,8.20
2022-11-23T19:48:23.775Z,9.10
2022-11-23T19:51:22.460Z,7.50
2022-11-23T19:54:21.070Z,8.70
2022-11-23T19:57:19.768Z,7.30
2022-11-23T20:00:19.005Z,9.80
2022-11-23T20:03:18.805Z,11.30
2022-11-23T20:06:16.919Z,9.70
2022-11-23T20:09:18.572Z,11.50
2022-11-23T20:12:18.322Z,12.90
2022-11-23T20:15:16.920Z,12.50
2022-11-23T20:18:15.152Z,11.60
2022-11-23T20:21:14.015Z,13.00
2022-11-23T20:24:20.497Z,15.60
2022-11-23T20:27:19.073Z,12.70
2022-11-23T20:30:17.681Z,11.00
2022-11-23T20:33:16.219Z,13.10
2022-11-23T20:36:15.570Z,13.80
2022-11-23T20:39:19.089Z,12.00
2022-11-23T20:42:17.080Z,13.30
2022-11-23T20:45:15.496Z,13.60
2022-11-23T20:48:14.230Z,12.50
2022-11-23T20:51:12.290Z,13.80
2022-11-23T20:54:10.894Z,13.70
2022-11-23T20:57:09.328Z,13.50
2022-11-23T21:00:07.430Z,13.20
2022-11-23T21:03:05.828Z,17.70
2022-11-23T21:06:03.994Z,16.20
2022-11-23T21:09:01.577Z,15.70
2022-11-23T21:12:13.452Z,13.80
2022-11-23T21:15:10.990Z,12.10
2022-11-23T21:18:09.028Z,12.00
2022-11-23T21:21:06.867Z,8.80
2022-11-23T21:24:05.112Z,13.80
2022-11-23T21:27:02.923Z,14.40
2022-11-23T21:30:01.522Z,11.70
2022-11-23T21:32:59.183Z,15.90
2022-11-23T21:35:56.676Z,12.90
2022-11-23T21:38:54.154Z,14.80
2022-11-23T21:41:51.611Z,12.10
2022-11-23T21:44:49.082Z,12.00
2022-11-23T21:47:46.695Z,13.60
2022-11-23T21:50:44.143Z,12.50
2022-11-23T21:53:42.140Z,14.30
2022-11-23T21:56:39.612Z,16.30
2022-11-23T21:59:37.098Z,11.00
2022-11-23T22:02:34.716Z,12.30
2022-11-23T22:05:32.392Z,11.30
2022-11-23T22:08:30.101Z,12.90
2022-11-23T22:11:27.724Z,11.00
2022-11-23T22:14:25.219Z,13.30
2022-11-23T22:17:22.798Z,11.80
2022-11-23T22:20:20.281Z,12.50
2022-11-23T22:23:18.212Z,11.00
2022-11-23T22:26:15.708Z,13.40
2022-11-23T22:29:13.607Z,12.30
2022-11-23T22:32:11.262Z,13.20
2022-11-23T22:35:08.761Z,14.30
2022-11-23T22:38:06.275Z,10.70
2022-11-23T22:41:03.804Z,10.80
2022-11-23T22:44:01.308Z,13.10
2022-11-23T22:46:58.820Z,13.20
2022-11-23T22:49:56.334Z,13.70
2022-11-23T22:52:53.828Z,10.60
2022-11-23T22:55:51.352Z,12.60
2022-11-23T22:58:48.872Z,12.40
2022-11-23T23:01:46.413Z,11.00
2022-11-23T23:04:43.947Z,11.20
2022-11-23T23:07:41.551Z,10.70
2022-11-23T23:10:39.965Z,13.00
2022-11-23T23:13:37.449Z,10.00
2022-11-23T23:16:35.084Z,9.90
2022-11-23T23:19:32.664Z,8.00
2022-11-23T23:22:30.151Z,9.20
2022-11-23T23:25:27.656Z,9.70
2022-11-23T23:28:25.451Z,9.30
2022-11-23T23:31:23.019Z,9.50
2022-11-23T23:34:20.549Z,10.60
2022-11-23T23:37:18.084Z,10.30
2022-11-23T23:40:15.604Z,9.40
2022-11-23T23:43:13.104Z,9.90
2022-11-23T23:46:10.657Z,9.90
2022-11-23T23:49:08.241Z,11.90
2022-11-23T23:52:05.747Z,8.60
2022-11-23T23:55:03.248Z,10.70
2022-11-23T23:58:00.769Z,10.10
